sensor_id;sensor_type;location;lat;lon;timestamp;P1;durP1;ratioP1;P2;durP2;ratioP2
77384;SDS011;66443;49.122;8.346;2023-07-29T00:00:43;4.20;;;3.40;;
77384;SDS011;66443;49.122;8.346;2023-07-29T00:03:09;3.47;;;2.90;;
77384;SDS011;66443;49.122;8.346;2023-07-29T00:05:34;3.30;;;3.00;;
77384;SDS011;66443;49.122;8.346;2023-07-29T00:07:59;3.47;;;3.10;;
77384;SDS011;66443;49.122;8.346;2023-07-29T00:10:25;3.50;;;3.20;;
77384;SDS011;66443;49.122;8.346;2023-07-29T00:12:50;3.40;;;3.10;;
77384;SDS011;66443;49.122;8.346;2023-07-29T00:15:15;3.50;;;3.20;;
77384;SDS011;66443;49.122;8.346;2023-07-29T00:17:40;3.23;;;3.03;;
77384;SDS011;66443;49.122;8.346;2023-07-29T00:20:06;2.97;;;2.77;;
77384;SDS011;66443;49.122;8.346;2023-07-29T00:22:31;3.30;;;3.00;;
77384;SDS011;66443;49.122;8.346;2023-07-29T00:24:56;3.73;;;3.43;;
77384;SDS011;66443;49.122;8.346;2023-07-29T00:27:25;3.10;;;2.90;;
77384;SDS011;66443;49.122;8.346;2023-07-29T00:29:50;3.27;;;2.77;;
77384;SDS011;66443;49.122;8.346;2023-07-29T00:32:16;3.00;;;2.80;;
77384;SDS011;66443;49.122;8.346;2023-07-29T00:34:41;3.30;;;3.00;;
77384;SDS011;66443;49.122;8.346;2023-07-29T00:37:06;2.70;;;2.50;;
77384;SDS011;66443;49.122;8.346;2023-07-29T00:39:31;4.63;;;3.03;;
77384;SDS011;66443;49.122;8.346;2023-07-29T00:41:57;3.10;;;2.60;;
77384;SDS011;66443;49.122;8.346;2023-07-29T00:44:22;2.87;;;2.57;;
77384;SDS011;66443;49.122;8.346;2023-07-29T00:46:47;2.90;;;2.70;;
77384;SDS011;66443;49.122;8.346;2023-07-29T00:49:14;2.90;;;2.67;;
77384;SDS011;66443;49.122;8.346;2023-07-29T00:51:40;3.40;;;3.07;;
77384;SDS011;66443;49.122;8.346;2023-07-29T00:54:05;6.30;;;3.23;;
77384;SDS011;66443;49.122;8.346;2023-07-29T00:56:30;5.13;;;3.47;;
77384;SDS011;66443;49.122;8.346;2023-07-29T00:58:56;2.83;;;2.63;;
77384;SDS011;66443;49.122;8.346;2023-07-29T01:01:25;3.20;;;3.00;;
77384;SDS011;66443;49.122;8.346;2023-07-29T01:03:50;2.97;;;2.67;;
77384;SDS011;66443;49.122;8.346;2023-07-29T01:06:23;3.20;;;2.63;;
77384;SDS011;66443;49.122;8.346;2023-07-29T01:08:56;2.77;;;2.57;;
77384;SDS011;66443;49.122;8.346;2023-07-29T01:14:11;2.90;;;2.70;;
77384;SDS011;66443;49.122;8.346;2023-07-29T01:16:42;2.97;;;2.47;;
77384;SDS011;66443;49.122;8.346;2023-07-29T01:19:16;2.50;;;2.30;;
77384;SDS011;66443;49.122;8.346;2023-07-29T01:21:44;2.47;;;2.27;;
77384;SDS011;66443;49.122;8.346;2023-07-29T01:24:09;2.50;;;2.30;;
77384;SDS011;66443;49.122;8.346;2023-07-29T01:26:36;2.97;;;2.70;;
77384;SDS011;66443;49.122;8.346;2023-07-29T01:29:02;2.40;;;2.23;;
77384;SDS011;66443;49.122;8.346;2023-07-29T01:31:29;3.40;;;2.50;;
77384;SDS011;66443;49.122;8.346;2023-07-29T01:33:57;3.17;;;2.50;;
77384;SDS011;66443;49.122;8.346;2023-07-29T01:36:23;2.30;;;2.20;;
77384;SDS011;66443;49.122;8.346;2023-07-29T01:38:50;3.97;;;2.27;;
77384;SDS011;66443;49.122;8.346;2023-07-29T01:41:16;2.97;;;2.73;;
77384;SDS011;66443;49.122;8.346;2023-07-29T01:43:42;2.67;;;2.27;;
77384;SDS011;66443;49.122;8.346;2023-07-29T01:46:09;2.57;;;2.43;;
77384;SDS011;66443;49.122;8.346;2023-07-29T01:48:35;5.20;;;3.03;;
77384;SDS011;66443;49.122;8.346;2023-07-29T01:51:00;3.73;;;2.43;;
77384;SDS011;66443;49.122;8.346;2023-07-29T01:53:25;2.87;;;2.60;;
77384;SDS011;66443;49.122;8.346;2023-07-29T01:55:50;3.00;;;2.80;;
77384;SDS011;66443;49.122;8.346;2023-07-29T01:58:15;3.67;;;2.70;;
77384;SDS011;66443;49.122;8.346;2023-07-29T02:00:40;4.30;;;3.00;;
77384;SDS011;66443;49.122;8.346;2023-07-29T02:03:06;4.33;;;2.67;;
77384;SDS011;66443;49.122;8.346;2023-07-29T02:05:31;3.10;;;2.90;;
77384;SDS011;66443;49.122;8.346;2023-07-29T02:07:56;3.10;;;2.90;;
77384;SDS011;66443;49.122;8.346;2023-07-29T02:10:21;5.57;;;2.80;;
77384;SDS011;66443;49.122;8.346;2023-07-29T02:12:46;3.33;;;3.03;;
77384;SDS011;66443;49.122;8.346;2023-07-29T02:15:12;2.73;;;2.53;;
77384;SDS011;66443;49.122;8.346;2023-07-29T02:17:37;3.00;;;2.80;;
77384;SDS011;66443;49.122;8.346;2023-07-29T02:20:03;2.97;;;2.77;;
77384;SDS011;66443;49.122;8.346;2023-07-29T02:22:28;3.00;;;2.67;;
77384;SDS011;66443;49.122;8.346;2023-07-29T02:24:54;24.37;;;3.90;;
77384;SDS011;66443;49.122;8.346;2023-07-29T02:27:19;4.80;;;4.27;;
77384;SDS011;66443;49.122;8.346;2023-07-29T02:29:44;7.83;;;4.10;;
77384;SDS011;66443;49.122;8.346;2023-07-29T02:32:09;4.37;;;3.97;;
77384;SDS011;66443;49.122;8.346;2023-07-29T02:34:34;4.53;;;4.23;;
77384;SDS011;66443;49.122;8.346;2023-07-29T02:37:00;4.73;;;3.80;;
77384;SDS011;66443;49.122;8.346;2023-07-29T02:39:25;4.53;;;4.13;;
77384;SDS011;66443;49.122;8.346;2023-07-29T02:41:50;4.40;;;3.93;;
77384;SDS011;66443;49.122;8.346;2023-07-29T02:44:16;4.70;;;4.30;;
77384;SDS011;66443;49.122;8.346;2023-07-29T02:46:41;6.50;;;4.40;;
77384;SDS011;66443;49.122;8.346;2023-07-29T02:49:06;8.07;;;4.67;;
77384;SDS011;66443;49.122;8.346;2023-07-29T02:51:31;5.03;;;4.50;;
77384;SDS011;66443;49.122;8.346;2023-07-29T02:53:57;5.03;;;4.63;;
77384;SDS011;66443;49.122;8.346;2023-07-29T02:56:22;5.60;;;5.00;;
77384;SDS011;66443;49.122;8.346;2023-07-29T02:58:47;5.93;;;5.20;;
77384;SDS011;66443;49.122;8.346;2023-07-29T03:01:12;5.97;;;5.47;;
77384;SDS011;66443;49.122;8.346;2023-07-29T03:03:38;6.13;;;4.90;;
77384;SDS011;66443;49.122;8.346;2023-07-29T03:06:07;5.60;;;5.20;;
77384;SDS011;66443;49.122;8.346;2023-07-29T03:08:33;5.60;;;5.17;;
77384;SDS011;66443;49.122;8.346;2023-07-29T03:10:58;5.63;;;5.00;;
77384;SDS011;66443;49.122;8.346;2023-07-29T03:13:23;6.07;;;5.57;;
77384;SDS011;66443;49.122;8.346;2023-07-29T03:15:48;6.63;;;5.83;;
77384;SDS011;66443;49.122;8.346;2023-07-29T03:18:14;6.07;;;5.57;;
77384;SDS011;66443;49.122;8.346;2023-07-29T03:20:39;6.23;;;5.73;;
77384;SDS011;66443;49.122;8.346;2023-07-29T03:23:05;6.23;;;5.70;;
77384;SDS011;66443;49.122;8.346;2023-07-29T03:25:30;7.17;;;5.50;;
77384;SDS011;66443;49.122;8.346;2023-07-29T03:27:55;5.50;;;5.10;;
77384;SDS011;66443;49.122;8.346;2023-07-29T03:30:21;6.10;;;5.60;;
77384;SDS011;66443;49.122;8.346;2023-07-29T03:32:47;6.27;;;5.67;;
77384;SDS011;66443;49.122;8.346;2023-07-29T03:35:12;7.33;;;4.87;;
77384;SDS011;66443;49.122;8.346;2023-07-29T03:37:38;6.17;;;5.27;;
77384;SDS011;66443;49.122;8.346;2023-07-29T03:40:03;5.83;;;5.40;;
77384;SDS011;66443;49.122;8.346;2023-07-29T03:42:29;5.97;;;5.43;;
77384;SDS011;66443;49.122;8.346;2023-07-29T03:44:54;5.87;;;5.27;;
77384;SDS011;66443;49.122;8.346;2023-07-29T03:47:19;5.70;;;5.30;;
77384;SDS011;66443;49.122;8.346;2023-07-29T03:49:44;6.07;;;5.47;;
77384;SDS011;66443;49.122;8.346;2023-07-29T03:52:10;5.40;;;4.90;;
77384;SDS011;66443;49.122;8.346;2023-07-29T03:54:35;4.47;;;4.17;;
77384;SDS011;66443;49.122;8.346;2023-07-29T03:57:00;5.37;;;4.90;;
77384;SDS011;66443;49.122;8.346;2023-07-29T03:59:26;5.20;;;4.70;;
77384;SDS011;66443;49.122;8.346;2023-07-29T04:01:51;4.70;;;4.30;;
77384;SDS011;66443;49.122;8.346;2023-07-29T04:04:16;5.07;;;4.57;;
77384;SDS011;66443;49.122;8.346;2023-07-29T04:06:41;4.63;;;4.33;;
77384;SDS011;66443;49.122;8.346;2023-07-29T04:09:06;6.07;;;4.10;;
77384;SDS011;66443;49.122;8.346;2023-07-29T04:11:33;5.50;;;4.97;;
77384;SDS011;66443;49.122;8.346;2023-07-29T04:13:58;4.40;;;4.00;;
77384;SDS011;66443;49.122;8.346;2023-07-29T04:16:23;4.93;;;4.53;;
77384;SDS011;66443;49.122;8.346;2023-07-29T04:18:48;4.83;;;4.43;;
77384;SDS011;66443;49.122;8.346;2023-07-29T04:21:13;6.07;;;4.60;;
77384;SDS011;66443;49.122;8.346;2023-07-29T04:23:39;4.50;;;4.20;;
77384;SDS011;66443;49.122;8.346;2023-07-29T04:26:05;4.23;;;3.90;;
77384;SDS011;66443;49.122;8.346;2023-07-29T04:28:30;3.60;;;3.30;;
77384;SDS011;66443;49.122;8.346;2023-07-29T04:30:55;3.27;;;3.07;;
77384;SDS011;66443;49.122;8.346;2023-07-29T04:33:20;4.53;;;2.83;;
77384;SDS011;66443;49.122;8.346;2023-07-29T04:35:45;3.17;;;2.97;;
77384;SDS011;66443;49.122;8.346;2023-07-29T04:38:11;5.43;;;2.97;;
77384;SDS011;66443;49.122;8.346;2023-07-29T04:40:36;3.77;;;3.40;;
77384;SDS011;66443;49.122;8.346;2023-07-29T04:43:01;5.43;;;3.40;;
77384;SDS011;66443;49.122;8.346;2023-07-29T04:45:29;3.33;;;3.10;;
77384;SDS011;66443;49.122;8.346;2023-07-29T04:47:55;3.43;;;3.13;;
77384;SDS011;66443;49.122;8.346;2023-07-29T04:50:20;3.43;;;3.00;;
77384;SDS011;66443;49.122;8.346;2023-07-29T04:52:45;4.13;;;3.83;;
77384;SDS011;66443;49.122;8.346;2023-07-29T04:55:10;4.77;;;4.37;;
77384;SDS011;66443;49.122;8.346;2023-07-29T04:57:36;5.00;;;4.60;;
77384;SDS011;66443;49.122;8.346;2023-07-29T05:00:01;4.40;;;4.00;;
77384;SDS011;66443;49.122;8.346;2023-07-29T05:02:27;4.50;;;4.20;;
77384;SDS011;66443;49.122;8.346;2023-07-29T05:04:52;4.57;;;4.20;;
77384;SDS011;66443;49.122;8.346;2023-07-29T05:07:18;4.93;;;4.53;;
77384;SDS011;66443;49.122;8.346;2023-07-29T05:09:43;4.30;;;3.90;;
77384;SDS011;66443;49.122;8.346;2023-07-29T05:12:08;4.23;;;3.87;;
77384;SDS011;66443;49.122;8.346;2023-07-29T05:14:33;3.77;;;3.20;;
77384;SDS011;66443;49.122;8.346;2023-07-29T05:16:59;4.00;;;3.70;;
77384;SDS011;66443;49.122;8.346;2023-07-29T05:19:24;3.93;;;3.63;;
77384;SDS011;66443;49.122;8.346;2023-07-29T05:21:49;3.33;;;3.00;;
77384;SDS011;66443;49.122;8.346;2023-07-29T05:24:14;5.10;;;3.03;;
77384;SDS011;66443;49.122;8.346;2023-07-29T05:26:39;3.33;;;2.90;;
77384;SDS011;66443;49.122;8.346;2023-07-29T05:29:05;3.90;;;3.50;;
77384;SDS011;66443;49.122;8.346;2023-07-29T05:31:30;2.93;;;2.73;;
77384;SDS011;66443;49.122;8.346;2023-07-29T05:33:55;4.93;;;3.03;;
77384;SDS011;66443;49.122;8.346;2023-07-29T05:36:20;2.80;;;2.60;;
77384;SDS011;66443;49.122;8.346;2023-07-29T05:38:45;3.57;;;3.27;;
77384;SDS011;66443;49.122;8.346;2023-07-29T05:41:11;3.33;;;3.03;;
77384;SDS011;66443;49.122;8.346;2023-07-29T05:43:36;3.87;;;2.90;;
77384;SDS011;66443;49.122;8.346;2023-07-29T05:46:02;3.30;;;3.10;;
77384;SDS011;66443;49.122;8.346;2023-07-29T05:48:27;3.33;;;2.80;;
77384;SDS011;66443;49.122;8.346;2023-07-29T05:50:52;3.60;;;3.27;;
77384;SDS011;66443;49.122;8.346;2023-07-29T05:53:17;3.03;;;2.33;;
77384;SDS011;66443;49.122;8.346;2023-07-29T05:55:42;4.43;;;2.70;;
77384;SDS011;66443;49.122;8.346;2023-07-29T05:58:08;2.70;;;2.50;;
77384;SDS011;66443;49.122;8.346;2023-07-29T06:00:34;2.27;;;2.17;;
77384;SDS011;66443;49.122;8.346;2023-07-29T06:02:59;2.70;;;2.43;;
77384;SDS011;66443;49.122;8.346;2023-07-29T06:05:24;3.30;;;2.53;;
77384;SDS011;66443;49.122;8.346;2023-07-29T06:07:50;3.57;;;2.57;;
77384;SDS011;66443;49.122;8.346;2023-07-29T06:10:15;3.97;;;3.03;;
77384;SDS011;66443;49.122;8.346;2023-07-29T06:12:44;2.50;;;2.40;;
77384;SDS011;66443;49.122;8.346;2023-07-29T06:15:09;3.00;;;2.33;;
77384;SDS011;66443;49.122;8.346;2023-07-29T06:17:34;3.17;;;2.80;;
77384;SDS011;66443;49.122;8.346;2023-07-29T06:19:59;2.90;;;2.70;;
77384;SDS011;66443;49.122;8.346;2023-07-29T06:22:24;2.80;;;2.60;;
77384;SDS011;66443;49.122;8.346;2023-07-29T06:24:50;4.00;;;3.10;;
77384;SDS011;66443;49.122;8.346;2023-07-29T06:27:15;3.40;;;3.13;;
77384;SDS011;66443;49.122;8.346;2023-07-29T06:29:40;3.10;;;2.80;;
77384;SDS011;66443;49.122;8.346;2023-07-29T06:32:05;3.07;;;2.87;;
77384;SDS011;66443;49.122;8.346;2023-07-29T06:34:30;3.57;;;2.77;;
77384;SDS011;66443;49.122;8.346;2023-07-29T06:36:56;3.13;;;2.93;;
77384;SDS011;66443;49.122;8.346;2023-07-29T06:39:22;2.87;;;2.67;;
77384;SDS011;66443;49.122;8.346;2023-07-29T06:41:47;2.60;;;2.40;;
77384;SDS011;66443;49.122;8.346;2023-07-29T06:44:12;4.70;;;2.73;;
77384;SDS011;66443;49.122;8.346;2023-07-29T06:46:37;3.00;;;2.70;;
77384;SDS011;66443;49.122;8.346;2023-07-29T06:49:02;3.27;;;3.07;;
77384;SDS011;66443;49.122;8.346;2023-07-29T06:51:27;2.53;;;2.43;;
77384;SDS011;66443;49.122;8.346;2023-07-29T06:53:57;2.90;;;2.60;;
77384;SDS011;66443;49.122;8.346;2023-07-29T06:56:22;3.77;;;2.30;;
77384;SDS011;66443;49.122;8.346;2023-07-29T06:58:47;2.40;;;2.20;;
77384;SDS011;66443;49.122;8.346;2023-07-29T07:01:12;2.43;;;2.20;;
77384;SDS011;66443;49.122;8.346;2023-07-29T07:03:38;3.03;;;2.37;;
77384;SDS011;66443;49.122;8.346;2023-07-29T07:06:03;2.37;;;2.17;;
77384;SDS011;66443;49.122;8.346;2023-07-29T07:08:29;2.37;;;2.17;;
77384;SDS011;66443;49.122;8.346;2023-07-29T07:10:56;2.30;;;2.20;;
77384;SDS011;66443;49.122;8.346;2023-07-29T07:13:21;2.90;;;2.23;;
77384;SDS011;66443;49.122;8.346;2023-07-29T07:15:46;2.43;;;2.10;;
77384;SDS011;66443;49.122;8.346;2023-07-29T07:18:11;2.47;;;2.00;;
77384;SDS011;66443;49.122;8.346;2023-07-29T07:20:36;1.80;;;1.70;;
77384;SDS011;66443;49.122;8.346;2023-07-29T07:23:02;2.17;;;2.07;;
77384;SDS011;66443;49.122;8.346;2023-07-29T07:25:27;2.90;;;2.33;;
77384;SDS011;66443;49.122;8.346;2023-07-29T07:27:53;1.87;;;1.70;;
77384;SDS011;66443;49.122;8.346;2023-07-29T07:30:18;3.33;;;1.80;;
77384;SDS011;66443;49.122;8.346;2023-07-29T07:32:43;2.33;;;1.70;;
77384;SDS011;66443;49.122;8.346;2023-07-29T07:35:10;1.93;;;1.77;;
77384;SDS011;66443;49.122;8.346;2023-07-29T07:37:35;2.03;;;1.93;;
77384;SDS011;66443;49.122;8.346;2023-07-29T07:40:00;2.13;;;2.03;;
77384;SDS011;66443;49.122;8.346;2023-07-29T07:42:25;2.67;;;2.17;;
77384;SDS011;66443;49.122;8.346;2023-07-29T07:44:51;2.50;;;2.30;;
77384;SDS011;66443;49.122;8.346;2023-07-29T07:47:16;3.50;;;2.43;;
77384;SDS011;66443;49.122;8.346;2023-07-29T07:49:41;2.90;;;2.70;;
77384;SDS011;66443;49.122;8.346;2023-07-29T07:52:06;2.57;;;2.33;;
77384;SDS011;66443;49.122;8.346;2023-07-29T07:54:32;2.50;;;2.30;;
77384;SDS011;66443;49.122;8.346;2023-07-29T07:56:57;3.50;;;2.50;;
77384;SDS011;66443;49.122;8.346;2023-07-29T07:59:22;2.40;;;2.30;;
77384;SDS011;66443;49.122;8.346;2023-07-29T08:01:47;1.93;;;1.83;;
77384;SDS011;66443;49.122;8.346;2023-07-29T08:04:12;4.17;;;2.13;;
77384;SDS011;66443;49.122;8.346;2023-07-29T08:06:38;3.13;;;2.57;;
77384;SDS011;66443;49.122;8.346;2023-07-29T08:09:03;2.10;;;2.00;;
77384;SDS011;66443;49.122;8.346;2023-07-29T08:11:28;2.50;;;2.30;;
77384;SDS011;66443;49.122;8.346;2023-07-29T08:13:53;2.20;;;2.00;;
77384;SDS011;66443;49.122;8.346;2023-07-29T08:16:18;2.37;;;2.27;;
77384;SDS011;66443;49.122;8.346;2023-07-29T08:18:44;5.90;;;2.37;;
77384;SDS011;66443;49.122;8.346;2023-07-29T08:21:09;2.50;;;1.90;;
77384;SDS011;66443;49.122;8.346;2023-07-29T08:23:35;5.07;;;2.33;;
77384;SDS011;66443;49.122;8.346;2023-07-29T08:26:01;2.27;;;1.87;;
77384;SDS011;66443;49.122;8.346;2023-07-29T08:28:31;2.33;;;2.20;;
77384;SDS011;66443;49.122;8.346;2023-07-29T08:30:56;2.30;;;2.20;;
77384;SDS011;66443;49.122;8.346;2023-07-29T08:33:22;3.90;;;2.10;;
77384;SDS011;66443;49.122;8.346;2023-07-29T08:35:47;2.20;;;2.10;;
77384;SDS011;66443;49.122;8.346;2023-07-29T08:38:12;2.10;;;1.97;;
77384;SDS011;66443;49.122;8.346;2023-07-29T08:40:39;2.37;;;2.17;;
77384;SDS011;66443;49.122;8.346;2023-07-29T08:43:06;2.90;;;2.47;;
77384;SDS011;66443;49.122;8.346;2023-07-29T08:45:34;2.70;;;1.60;;
77384;SDS011;66443;49.122;8.346;2023-07-29T08:47:59;3.40;;;2.20;;
77384;SDS011;66443;49.122;8.346;2023-07-29T08:50:27;1.63;;;1.50;;
77384;SDS011;66443;49.122;8.346;2023-07-29T08:52:52;1.40;;;1.30;;
77384;SDS011;66443;49.122;8.346;2023-07-29T08:55:18;1.90;;;1.47;;
77384;SDS011;66443;49.122;8.346;2023-07-29T08:57:43;3.80;;;1.50;;
77384;SDS011;66443;49.122;8.346;2023-07-29T09:00:09;1.97;;;1.77;;
77384;SDS011;66443;49.122;8.346;2023-07-29T09:02:35;1.90;;;1.63;;
77384;SDS011;66443;49.122;8.346;2023-07-29T09:05:01;2.03;;;1.63;;
77384;SDS011;66443;49.122;8.346;2023-07-29T09:07:26;1.60;;;1.50;;
77384;SDS011;66443;49.122;8.346;2023-07-29T09:09:52;1.70;;;1.60;;
77384;SDS011;66443;49.122;8.346;2023-07-29T09:12:17;2.20;;;1.50;;
77384;SDS011;66443;49.122;8.346;2023-07-29T09:14:42;1.50;;;1.40;;
77384;SDS011;66443;49.122;8.346;2023-07-29T09:17:08;1.67;;;1.57;;
77384;SDS011;66443;49.122;8.346;2023-07-29T09:19:33;1.80;;;1.70;;
77384;SDS011;66443;49.122;8.346;2023-07-29T09:21:59;2.13;;;1.57;;
77384;SDS011;66443;49.122;8.346;2023-07-29T09:24:25;1.30;;;1.20;;
77384;SDS011;66443;49.122;8.346;2023-07-29T09:26:50;1.97;;;1.83;;
77384;SDS011;66443;49.122;8.346;2023-07-29T09:29:15;1.87;;;1.77;;
77384;SDS011;66443;49.122;8.346;2023-07-29T09:31:41;2.00;;;1.50;;
77384;SDS011;66443;49.122;8.346;2023-07-29T09:34:06;2.33;;;1.83;;
77384;SDS011;66443;49.122;8.346;2023-07-29T09:36:32;1.67;;;1.57;;
77384;SDS011;66443;49.122;8.346;2023-07-29T09:38:57;1.43;;;1.40;;
77384;SDS011;66443;49.122;8.346;2023-07-29T09:41:24;1.60;;;1.47;;
77384;SDS011;66443;49.122;8.346;2023-07-29T09:43:54;2.30;;;1.30;;
77384;SDS011;66443;49.122;8.346;2023-07-29T09:46:20;1.40;;;1.30;;
77384;SDS011;66443;49.122;8.346;2023-07-29T09:48:47;1.33;;;1.23;;
77384;SDS011;66443;49.122;8.346;2023-07-29T09:51:15;1.37;;;1.27;;
77384;SDS011;66443;49.122;8.346;2023-07-29T09:53:44;1.60;;;1.50;;
77384;SDS011;66443;49.122;8.346;2023-07-29T09:56:10;1.50;;;1.40;;
77384;SDS011;66443;49.122;8.346;2023-07-29T09:58:35;2.03;;;1.25;;
77384;SDS011;66443;49.122;8.346;2023-07-29T10:01:02;1.13;;;1.13;;
77384;SDS011;66443;49.122;8.346;2023-07-29T10:03:28;1.33;;;1.23;;
77384;SDS011;66443;49.122;8.346;2023-07-29T10:05:54;1.63;;;1.30;;
77384;SDS011;66443;49.122;8.346;2023-07-29T10:08:20;1.67;;;1.25;;
77384;SDS011;66443;49.122;8.346;2023-07-29T10:10:46;1.33;;;1.20;;
77384;SDS011;66443;49.122;8.346;2023-07-29T10:13:12;1.75;;;1.33;;
77384;SDS011;66443;49.122;8.346;2023-07-29T10:15:37;2.30;;;1.20;;
77384;SDS011;66443;49.122;8.346;2023-07-29T10:18:03;1.43;;;1.33;;
77384;SDS011;66443;49.122;8.346;2023-07-29T10:20:30;2.45;;;2.15;;
77384;SDS011;66443;49.122;8.346;2023-07-29T10:22:55;2.43;;;1.17;;
77384;SDS011;66443;49.122;8.346;2023-07-29T10:25:23;2.00;;;1.53;;
77384;SDS011;66443;49.122;8.346;2023-07-29T10:27:52;1.33;;;1.23;;
77384;SDS011;66443;49.122;8.346;2023-07-29T10:30:17;1.20;;;1.20;;
77384;SDS011;66443;49.122;8.346;2023-07-29T10:32:43;1.23;;;1.23;;
77384;SDS011;66443;49.122;8.346;2023-07-29T10:35:09;1.27;;;1.23;;
77384;SDS011;66443;49.122;8.346;2023-07-29T10:37:35;1.60;;;1.40;;
77384;SDS011;66443;49.122;8.346;2023-07-29T10:40:00;1.48;;;1.35;;
77384;SDS011;66443;49.122;8.346;2023-07-29T10:42:25;1.45;;;1.40;;
77384;SDS011;66443;49.122;8.346;2023-07-29T10:44:51;1.27;;;1.17;;
77384;SDS011;66443;49.122;8.346;2023-07-29T10:47:18;1.30;;;1.13;;
77384;SDS011;66443;49.122;8.346;2023-07-29T10:49:44;2.30;;;1.30;;
77384;SDS011;66443;49.122;8.346;2023-07-29T10:52:16;1.85;;;0.98;;
77384;SDS011;66443;49.122;8.346;2023-07-29T10:54:52;1.38;;;1.20;;
77384;SDS011;66443;49.122;8.346;2023-07-29T10:57:30;1.00;;;1.00;;
77384;SDS011;66443;49.122;8.346;2023-07-29T10:59:56;1.02;;;1.02;;
77384;SDS011;66443;49.122;8.346;2023-07-29T11:02:22;1.00;;;1.00;;
77384;SDS011;66443;49.122;8.346;2023-07-29T11:04:52;1.13;;;1.02;;
77384;SDS011;66443;49.122;8.346;2023-07-29T11:07:19;1.10;;;1.00;;
77384;SDS011;66443;49.122;8.346;2023-07-29T11:14:57;1.50;;;1.20;;
77384;SDS011;66443;49.122;8.346;2023-07-29T11:17:22;1.10;;;1.00;;
77384;SDS011;66443;49.122;8.346;2023-07-29T11:19:48;1.48;;;1.38;;
77384;SDS011;66443;49.122;8.346;2023-07-29T11:22:15;1.52;;;1.42;;
77384;SDS011;66443;49.122;8.346;2023-07-29T11:24:41;2.93;;;2.03;;
77384;SDS011;66443;49.122;8.346;2023-07-29T11:27:10;2.80;;;2.50;;
77384;SDS011;66443;49.122;8.346;2023-07-29T11:29:36;2.80;;;2.40;;
77384;SDS011;66443;49.122;8.346;2023-07-29T11:32:02;2.50;;;2.30;;
77384;SDS011;66443;49.122;8.346;2023-07-29T11:34:33;3.13;;;2.70;;
77384;SDS011;66443;49.122;8.346;2023-07-29T11:36:58;2.53;;;2.33;;
77384;SDS011;66443;49.122;8.346;2023-07-29T11:39:23;2.93;;;2.73;;
77384;SDS011;66443;49.122;8.346;2023-07-29T11:41:49;2.80;;;2.40;;
77384;SDS011;66443;49.122;8.346;2023-07-29T11:44:17;2.60;;;2.40;;
77384;SDS011;66443;49.122;8.346;2023-07-29T11:46:43;2.60;;;2.50;;
77384;SDS011;66443;49.122;8.346;2023-07-29T11:49:08;7.37;;;3.27;;
77384;SDS011;66443;49.122;8.346;2023-07-29T11:51:33;3.10;;;2.70;;
77384;SDS011;66443;49.122;8.346;2023-07-29T11:53:58;2.87;;;2.40;;
77384;SDS011;66443;49.122;8.346;2023-07-29T11:56:24;2.40;;;2.20;;
77384;SDS011;66443;49.122;8.346;2023-07-29T11:58:50;1.97;;;1.87;;
77384;SDS011;66443;49.122;8.346;2023-07-29T12:01:15;2.37;;;1.93;;
77384;SDS011;66443;49.122;8.346;2023-07-29T12:03:40;1.80;;;1.70;;
77384;SDS011;66443;49.122;8.346;2023-07-29T12:06:06;1.80;;;1.67;;
77384;SDS011;66443;49.122;8.346;2023-07-29T12:08:31;2.97;;;1.80;;
77384;SDS011;66443;49.122;8.346;2023-07-29T12:10:57;2.20;;;1.43;;
77384;SDS011;66443;49.122;8.346;2023-07-29T12:13:25;1.70;;;1.60;;
77384;SDS011;66443;49.122;8.346;2023-07-29T12:15:51;2.93;;;2.03;;
77384;SDS011;66443;49.122;8.346;2023-07-29T12:18:16;1.77;;;1.67;;
77384;SDS011;66443;49.122;8.346;2023-07-29T12:20:41;1.80;;;1.70;;
77384;SDS011;66443;49.122;8.346;2023-07-29T12:23:06;2.00;;;1.80;;
77384;SDS011;66443;49.122;8.346;2023-07-29T12:25:32;1.53;;;1.40;;
77384;SDS011;66443;49.122;8.346;2023-07-29T12:28:07;2.10;;;1.70;;
77384;SDS011;66443;49.122;8.346;2023-07-29T12:30:32;1.80;;;1.70;;
77384;SDS011;66443;49.122;8.346;2023-07-29T12:32:58;1.67;;;1.58;;
77384;SDS011;66443;49.122;8.346;2023-07-29T12:35:23;1.80;;;1.70;;
77384;SDS011;66443;49.122;8.346;2023-07-29T12:37:57;2.45;;;1.70;;
77384;SDS011;66443;49.122;8.346;2023-07-29T12:40:23;2.15;;;1.83;;
77384;SDS011;66443;49.122;8.346;2023-07-29T12:42:49;1.50;;;1.40;;
77384;SDS011;66443;49.122;8.346;2023-07-29T12:45:15;1.40;;;1.40;;
77384;SDS011;66443;49.122;8.346;2023-07-29T12:47:40;1.60;;;1.50;;
77384;SDS011;66443;49.122;8.346;2023-07-29T12:50:06;1.35;;;1.20;;
77384;SDS011;66443;49.122;8.346;2023-07-29T12:52:31;1.23;;;1.23;;
77384;SDS011;66443;49.122;8.346;2023-07-29T12:54:56;1.30;;;1.20;;
77384;SDS011;66443;49.122;8.346;2023-07-29T12:57:21;1.58;;;1.30;;
77384;SDS011;66443;49.122;8.346;2023-07-29T12:59:46;2.38;;;1.40;;
77384;SDS011;66443;49.122;8.346;2023-07-29T13:02:12;1.42;;;1.33;;
77384;SDS011;66443;49.122;8.346;2023-07-29T13:04:37;2.08;;;1.25;;
77384;SDS011;66443;49.122;8.346;2023-07-29T13:09:43;1.48;;;1.38;;
77384;SDS011;66443;49.122;8.346;2023-07-29T13:12:09;1.45;;;1.25;;
77384;SDS011;66443;49.122;8.346;2023-07-29T13:14:34;1.23;;;1.10;;
77384;SDS011;66443;49.122;8.346;2023-07-29T13:16:59;1.40;;;1.30;;
77384;SDS011;66443;49.122;8.346;2023-07-29T13:19:24;1.30;;;1.30;;
77384;SDS011;66443;49.122;8.346;2023-07-29T13:21:49;1.10;;;1.10;;
77384;SDS011;66443;49.122;8.346;2023-07-29T13:24:14;1.40;;;1.30;;
77384;SDS011;66443;49.122;8.346;2023-07-29T13:26:40;2.80;;;1.20;;
77384;SDS011;66443;49.122;8.346;2023-07-29T13:29:05;1.40;;;1.30;;
77384;SDS011;66443;49.122;8.346;2023-07-29T13:31:30;1.40;;;1.30;;
77384;SDS011;66443;49.122;8.346;2023-07-29T13:33:56;1.23;;;1.20;;
77384;SDS011;66443;49.122;8.346;2023-07-29T13:36:21;9.90;;;1.27;;
77384;SDS011;66443;49.122;8.346;2023-07-29T13:38:46;1.08;;;1.05;;
77384;SDS011;66443;49.122;8.346;2023-07-29T13:41:11;6.97;;;1.17;;
77384;SDS011;66443;49.122;8.346;2023-07-29T13:43:36;1.13;;;1.00;;
77384;SDS011;66443;49.122;8.346;2023-07-29T13:46:01;0.90;;;0.90;;
77384;SDS011;66443;49.122;8.346;2023-07-29T13:48:27;1.13;;;1.13;;
77384;SDS011;66443;49.122;8.346;2023-07-29T13:50:52;2.10;;;1.20;;
77384;SDS011;66443;49.122;8.346;2023-07-29T13:53:17;1.27;;;1.27;;
77384;SDS011;66443;49.122;8.346;2023-07-29T13:55:42;1.83;;;1.20;;
77384;SDS011;66443;49.122;8.346;2023-07-29T13:58:07;1.23;;;1.10;;
77384;SDS011;66443;49.122;8.346;2023-07-29T14:00:33;1.92;;;1.60;;
77384;SDS011;66443;49.122;8.346;2023-07-29T14:02:58;1.23;;;1.13;;
77384;SDS011;66443;49.122;8.346;2023-07-29T14:05:23;1.10;;;1.00;;
77384;SDS011;66443;49.122;8.346;2023-07-29T14:07:48;1.07;;;1.07;;
77384;SDS011;66443;49.122;8.346;2023-07-29T14:10:13;0.90;;;0.90;;
77384;SDS011;66443;49.122;8.346;2023-07-29T14:12:39;1.90;;;1.00;;
77384;SDS011;66443;49.122;8.346;2023-07-29T14:15:04;1.37;;;1.30;;
77384;SDS011;66443;49.122;8.346;2023-07-29T14:17:30;1.05;;;1.05;;
77384;SDS011;66443;49.122;8.346;2023-07-29T14:19:55;2.65;;;1.27;;
77384;SDS011;66443;49.122;8.346;2023-07-29T14:22:21;3.08;;;1.35;;
77384;SDS011;66443;49.122;8.346;2023-07-29T14:24:46;1.20;;;1.20;;
77384;SDS011;66443;49.122;8.346;2023-07-29T14:27:11;1.10;;;1.10;;
77384;SDS011;66443;49.122;8.346;2023-07-29T14:29:36;1.67;;;1.20;;
77384;SDS011;66443;49.122;8.346;2023-07-29T14:32:01;1.02;;;1.02;;
77384;SDS011;66443;49.122;8.346;2023-07-29T14:34:27;1.20;;;1.20;;
77384;SDS011;66443;49.122;8.346;2023-07-29T14:36:52;1.83;;;1.27;;
77384;SDS011;66443;49.122;8.346;2023-07-29T14:39:17;1.07;;;1.07;;
77384;SDS011;66443;49.122;8.346;2023-07-29T14:41:42;1.90;;;1.10;;
77384;SDS011;66443;49.122;8.346;2023-07-29T14:44:07;1.20;;;1.20;;
77384;SDS011;66443;49.122;8.346;2023-07-29T14:46:32;1.40;;;1.30;;
77384;SDS011;66443;49.122;8.346;2023-07-29T14:48:58;1.33;;;1.33;;